Ana Sayfa
METAR-TAF:

METAR-TAF

Havaalanları :

Vientiane, Laos

Enlem: 17-57N, Boylam: 102-34E, yükseklik: 171 m

Güncel hava durumu gözlemi

Rapor saat 07:30 UTC de 23 dakika önce yapıldı.
Rüzgar güney/güneydoğudan 4 kt
Sıcaklık 33°C
Nem 36%
Basınç 1009 hPa
Görüş mesafesi: 8000 m

METAR: VLVT 120730Z 16004KT 8000 NSC 33/16 Q1009 NOSIG

Saat: 14:53 (07:53 UTC)

Tahmin

Rapor saat 05:00 UTC de 2 saat ve 53 dakika önce yapıldı.
Ayın 12'si saat 06 UTC'den ayın 13'si saat 06 UTC'ye kadar geçerli Tahmin
Rüzgar kuzeybatıdan 6 kt
Görüş mesafesi: 8000 m
2000 ft yükseklikte parçalı bulutlu
20000 ft yükseklikte parçalı bulutlu

TAF: VLVT 120500Z 1206/1306 32006KT 8000 SCT020 SCT200

4.000'den fazla havaalanı için hava durumu gözlemleri ve tahminleri (METAR ve TAF raporları).

Kullanılabilir istasyonlar harita üzerinde sarı ve kırmızı noktalarla gösterilir.

İstasyonun adını görmek için fareyi noktanın üzerinde gezdirin.

Sonrasında hava gözlem ve tahminlerini görmek için tıklayın.

Haritayı değiştirmek için: yaklaştırmak için siyah artı işaretli yeşil düğmeye ve uzaklaştırmak için de eksi işaretli düğmeye hızla tıklayın; bitişik haritalar için yeşil okları kullanın.


METAR-TAF: